createdAt,value
2019-01-10T00:00:57.274Z,101461.00
2019-01-10T00:03:47.027Z,101458.00
2019-01-10T00:06:36.463Z,101465.00
2019-01-10T00:09:25.901Z,101475.00
2019-01-10T00:12:15.763Z,101455.00
2019-01-10T00:15:07.955Z,101467.00
2019-01-10T00:17:57.381Z,101476.00
2019-01-10T00:20:47.116Z,101425.00
2019-01-10T00:23:36.882Z,101418.00
2019-01-10T00:26:07.299Z,101463.00
2019-01-10T00:28:56.755Z,101467.00
2019-01-10T00:31:46.211Z,101439.00
2019-01-10T00:34:35.690Z,101444.00
2019-01-10T00:37:25.179Z,101481.00
2019-01-10T00:40:54.645Z,101437.00
2019-01-10T00:43:44.210Z,101487.00
2019-01-10T00:46:27.640Z,101474.00
2019-01-10T00:49:17.126Z,101441.00
2019-01-10T00:52:06.937Z,101474.00
2019-01-10T00:54:56.683Z,101422.00
2019-01-10T00:57:46.216Z,101487.00
2019-01-10T01:00:35.947Z,101433.00
2019-01-10T01:03:25.741Z,101487.00
2019-01-10T01:06:15.747Z,101486.00
2019-01-10T01:12:37.301Z,101502.00
2019-01-10T01:15:26.761Z,101507.00
2019-01-10T01:18:16.513Z,101498.00
2019-01-10T01:21:06.212Z,101501.00
2019-01-10T01:23:55.699Z,101512.00
2019-01-10T01:26:45.132Z,101491.00
2019-01-10T01:29:34.602Z,101522.00
2019-01-10T01:32:24.014Z,101527.00
2019-01-10T01:35:14.288Z,101481.00
2019-01-10T01:38:03.782Z,101534.00
2019-01-10T01:40:53.820Z,101484.00
2019-01-10T01:43:43.236Z,101547.00
2019-01-10T01:46:25.971Z,101532.00
2019-01-10T01:49:16.219Z,101494.00
2019-01-10T01:52:05.790Z,101542.00
2019-01-10T01:54:55.501Z,101498.00
2019-01-10T01:57:45.222Z,101502.00
2019-01-10T02:00:34.675Z,101554.00
2019-01-10T02:03:24.117Z,101535.00
2019-01-10T02:06:13.619Z,101569.00
2019-01-10T02:09:03.873Z,101521.00
2019-01-10T02:11:53.892Z,101513.00
2019-01-10T02:14:43.348Z,101567.00
2019-01-10T02:17:14.001Z,101583.00
2019-01-10T02:20:04.293Z,101578.00
2019-01-10T02:22:53.890Z,101527.00
2019-01-10T02:25:43.326Z,101563.00
2019-01-10T02:28:32.842Z,101599.00
2019-01-10T02:31:22.725Z,101564.00
2019-01-10T02:34:12.188Z,101550.00
2019-01-10T02:37:01.640Z,101553.00
2019-01-10T02:39:51.169Z,101563.00
2019-01-10T02:42:40.985Z,101588.00
2019-01-10T02:45:30.885Z,101597.00
2019-01-10T02:48:13.147Z,101552.00
2019-01-10T02:51:02.615Z,101553.00
2019-01-10T02:53:52.335Z,101589.00
2019-01-10T02:56:42.404Z,101593.00
2019-01-10T02:59:31.858Z,101588.00
2019-01-10T03:02:21.600Z,101580.00
2019-01-10T03:05:11.658Z,101583.00
2019-01-10T03:08:01.542Z,101582.00
2019-01-10T03:10:51.066Z,101590.00
2019-01-10T03:13:40.142Z,101578.00
2019-01-10T03:16:30.245Z,101583.00
2019-01-10T03:19:19.677Z,101584.00
2019-01-10T03:22:09.272Z,101581.00
2019-01-10T03:24:58.713Z,101582.00
2019-01-10T03:27:48.226Z,101532.00
2019-01-10T03:30:37.938Z,101590.00
2019-01-10T03:33:27.411Z,101589.00
2019-01-10T03:36:16.939Z,101602.00
2019-01-10T03:39:47.990Z,101555.00
2019-01-10T03:42:18.780Z,101605.00
2019-01-10T03:45:10.734Z,101616.00
2019-01-10T03:47:53.223Z,101566.00
2019-01-10T03:50:43.011Z,101605.00
2019-01-10T03:53:13.815Z,101602.00
2019-01-10T03:56:03.270Z,101613.00
2019-01-10T03:58:52.678Z,101554.00
2019-01-10T04:01:42.494Z,101603.00
2019-01-10T04:04:31.938Z,101561.00
2019-01-10T04:07:21.397Z,101619.00
2019-01-10T04:10:11.348Z,101617.00
2019-01-10T04:13:00.824Z,101623.00
2019-01-10T04:15:50.349Z,101614.00
2019-01-10T04:18:39.838Z,101620.00
2019-01-10T04:21:29.622Z,101575.00
2019-01-10T04:24:19.060Z,101604.00
2019-01-10T04:27:08.867Z,101621.00
2019-01-10T04:29:58.372Z,101617.00
2019-01-10T04:32:48.053Z,101628.00
2019-01-10T04:35:37.763Z,101625.00
2019-01-10T04:38:27.166Z,101621.00
2019-01-10T04:40:57.775Z,101621.00
2019-01-10T04:43:28.537Z,101618.00
2019-01-10T04:46:17.993Z,101627.00
2019-01-10T04:49:00.520Z,101568.00
2019-01-10T04:51:49.943Z,101624.00
2019-01-10T04:54:39.661Z,101618.00
2019-01-10T04:57:29.358Z,101618.00
2019-01-10T05:00:23.612Z,101624.00
2019-01-10T05:03:13.098Z,101618.00
2019-01-10T05:06:02.589Z,101576.00
2019-01-10T05:08:33.252Z,101606.00
2019-01-10T05:11:23.105Z,101566.00
2019-01-10T05:14:16.639Z,101582.00
2019-01-10T05:17:03.989Z,101613.00
2019-01-10T05:19:55.831Z,101598.00
2019-01-10T05:22:45.375Z,101550.00
2019-01-10T05:25:34.957Z,101546.00
2019-01-10T05:28:24.455Z,101599.00
2019-01-10T05:31:13.933Z,101558.00
2019-01-10T05:34:03.403Z,101614.00
2019-01-10T05:36:52.908Z,101562.00
2019-01-10T05:39:47.609Z,101620.00
2019-01-10T05:42:34.314Z,101623.00
2019-01-10T05:45:24.160Z,101574.00
2019-01-10T05:48:06.951Z,101624.00
2019-01-10T05:50:56.864Z,101630.00
2019-01-10T05:53:46.316Z,101589.00
2019-01-10T05:56:35.790Z,101640.00
2019-01-10T05:59:25.528Z,101644.00
2019-01-10T06:02:15.026Z,101649.00
2019-01-10T06:08:19.998Z,101603.00
2019-01-10T06:11:09.556Z,101645.00
2019-01-10T06:13:59.033Z,101659.00
2019-01-10T06:16:48.511Z,101653.00
2019-01-10T06:19:37.986Z,101656.00
2019-01-10T06:22:27.725Z,101652.00
2019-01-10T06:25:17.193Z,101612.00
2019-01-10T06:28:06.977Z,101630.00
2019-01-10T06:30:56.440Z,101665.00
2019-01-10T06:33:45.973Z,101628.00
2019-01-10T06:36:35.441Z,101671.00
2019-01-10T06:39:25.021Z,101672.00
2019-01-10T06:42:14.479Z,101670.00
2019-01-10T06:48:12.035Z,101673.00
2019-01-10T06:51:01.502Z,101629.00
2019-01-10T06:53:31.870Z,101670.00
2019-01-10T06:56:02.280Z,101670.00
2019-01-10T06:58:52.115Z,101615.00
2019-01-10T07:01:41.903Z,101658.00
2019-01-10T07:04:12.317Z,101673.00
2019-01-10T07:07:01.769Z,101676.00
2019-01-10T07:09:51.237Z,101679.00
2019-01-10T07:12:40.722Z,101631.00
2019-01-10T07:15:30.853Z,101691.00
2019-01-10T07:18:01.444Z,101691.00
2019-01-10T07:20:52.223Z,101671.00
2019-01-10T07:23:23.264Z,101697.00
2019-01-10T07:25:56.874Z,101704.00
2019-01-10T07:28:46.340Z,101713.00
2019-01-10T07:31:35.768Z,101706.00
2019-01-10T07:34:25.301Z,101710.00
2019-01-10T07:37:14.763Z,101684.00
2019-01-10T07:40:05.506Z,101717.00
2019-01-10T07:42:55.401Z,101710.00
2019-01-10T07:45:45.119Z,101721.00
2019-01-10T07:48:27.911Z,101723.00
2019-01-10T07:51:17.435Z,101701.00
2019-01-10T07:54:06.890Z,101717.00
2019-01-10T07:56:56.557Z,101726.00
2019-01-10T07:59:46.031Z,101682.00
2019-01-10T08:02:16.420Z,101731.00
2019-01-10T08:05:06.139Z,101736.00
2019-01-10T08:07:55.652Z,101738.00
2019-01-10T08:10:45.464Z,101736.00
2019-01-10T08:13:34.975Z,101679.00
2019-01-10T08:16:24.710Z,101690.00
2019-01-10T08:19:14.215Z,101740.00
2019-01-10T08:22:03.666Z,101706.00
2019-01-10T08:24:53.244Z,101749.00
2019-01-10T08:31:11.622Z,101754.00
2019-01-10T08:34:01.045Z,101762.00
2019-01-10T08:36:50.574Z,101701.00
2019-01-10T08:39:40.041Z,101702.00
2019-01-10T08:42:29.518Z,101706.00
2019-01-10T08:45:21.980Z,101754.00
2019-01-10T08:48:04.177Z,101766.00
2019-01-10T08:50:53.632Z,101768.00
2019-01-10T08:53:43.737Z,101764.00
2019-01-10T08:56:33.233Z,101762.00
2019-01-10T08:59:23.383Z,101766.00
2019-01-10T09:02:12.960Z,101767.00
2019-01-10T09:04:43.638Z,101774.00
2019-01-10T09:07:14.334Z,101772.00
2019-01-10T09:10:03.792Z,101772.00
2019-01-10T09:12:53.254Z,101748.00
2019-01-10T09:15:42.722Z,101783.00
2019-01-10T09:18:32.163Z,101785.00
2019-01-10T09:21:23.435Z,101783.00
2019-01-10T09:24:12.787Z,101727.00
2019-01-10T09:27:02.203Z,101774.00
2019-01-10T09:29:51.600Z,101754.00
2019-01-10T09:32:41.072Z,101783.00
2019-01-10T09:35:30.914Z,101781.00
2019-01-10T09:38:20.510Z,101787.00
2019-01-10T09:41:09.960Z,101755.00
2019-01-10T09:43:59.490Z,101783.00
2019-01-10T09:46:48.943Z,101785.00
2019-01-10T09:49:30.518Z,101730.00
2019-01-10T09:52:20.071Z,101756.00
2019-01-10T09:55:09.931Z,101741.00
2019-01-10T09:57:59.376Z,101780.00
2019-01-10T10:00:48.969Z,101781.00
2019-01-10T10:03:38.491Z,101785.00
2019-01-10T10:06:27.899Z,101745.00
2019-01-10T10:09:17.408Z,101760.00
2019-01-10T10:12:06.884Z,101743.00
2019-01-10T10:14:56.721Z,101788.00
2019-01-10T10:17:46.184Z,101784.00
2019-01-10T10:20:35.627Z,101789.00
2019-01-10T10:23:26.876Z,101798.00
2019-01-10T10:26:16.624Z,101749.00
2019-01-10T10:29:06.097Z,101791.00
2019-01-10T10:31:55.910Z,101743.00
2019-01-10T10:34:45.399Z,101766.00
2019-01-10T10:37:34.876Z,101759.00
2019-01-10T10:40:07.482Z,101799.00
2019-01-10T10:42:56.914Z,101809.00
2019-01-10T10:45:46.670Z,101776.00
2019-01-10T10:48:36.153Z,101800.00
2019-01-10T10:51:25.592Z,101750.00
2019-01-10T10:54:15.094Z,101802.00
2019-01-10T10:57:04.956Z,101800.00
2019-01-10T10:59:54.695Z,101799.00
2019-01-10T11:02:44.175Z,101770.00
2019-01-10T11:05:33.651Z,101809.00
2019-01-10T11:08:23.080Z,101810.00
2019-01-10T11:11:12.586Z,101752.00
2019-01-10T11:14:02.052Z,101756.00
2019-01-10T11:16:32.757Z,101804.00
2019-01-10T11:19:03.104Z,101809.00
2019-01-10T11:21:52.607Z,101804.00
2019-01-10T11:24:42.066Z,101804.00
2019-01-10T11:27:31.848Z,101744.00
2019-01-10T11:30:21.301Z,101734.00
2019-01-10T11:33:11.177Z,101789.00
2019-01-10T11:36:00.912Z,101785.00
2019-01-10T11:38:50.368Z,101785.00
2019-01-10T11:41:39.813Z,101783.00
2019-01-10T11:44:29.293Z,101794.00
2019-01-10T11:47:11.429Z,101781.00
2019-01-10T11:49:53.991Z,101786.00
2019-01-10T11:55:40.315Z,101736.00
2019-01-10T11:58:29.770Z,101738.00
2019-01-10T12:01:19.566Z,101752.00
2019-01-10T12:04:09.471Z,101780.00
2019-01-10T12:06:59.066Z,101776.00
2019-01-10T12:09:48.886Z,101774.00
2019-01-10T12:12:38.681Z,101773.00
2019-01-10T12:15:28.191Z,101732.00
2019-01-10T12:18:17.615Z,101714.00
2019-01-10T12:20:48.424Z,101750.00
2019-01-10T12:23:18.801Z,101748.00
2019-01-10T12:26:08.981Z,101722.00
2019-01-10T12:28:39.294Z,101760.00
2019-01-10T12:31:09.608Z,101749.00
2019-01-10T12:33:41.801Z,101744.00
2019-01-10T12:36:31.116Z,101752.00
2019-01-10T12:39:03.511Z,101752.00
2019-01-10T12:41:53.024Z,101752.00
2019-01-10T12:44:42.490Z,101756.00
2019-01-10T12:47:12.898Z,101745.00
2019-01-10T12:49:43.373Z,101735.00
2019-01-10T12:52:34.855Z,101693.00
2019-01-10T12:55:18.113Z,101701.00
2019-01-10T12:58:08.414Z,101738.00
2019-01-10T13:00:59.312Z,101738.00
2019-01-10T13:03:48.752Z,101700.00
2019-01-10T13:06:38.273Z,101739.00
2019-01-10T13:09:27.728Z,101690.00
2019-01-10T13:12:17.497Z,101728.00
2019-01-10T13:15:09.415Z,101741.00
2019-01-10T13:17:59.722Z,101731.00
2019-01-10T13:20:49.523Z,101714.00
2019-01-10T13:23:39.223Z,101747.00
2019-01-10T13:26:28.727Z,101754.00
2019-01-10T13:28:59.216Z,101743.00
2019-01-10T13:31:48.630Z,101737.00
2019-01-10T13:34:19.828Z,101734.00
2019-01-10T13:37:09.516Z,101739.00
2019-01-10T13:39:59.032Z,101712.00
2019-01-10T13:42:56.441Z,101694.00
2019-01-10T13:45:46.499Z,101731.00
2019-01-10T13:51:47.578Z,101713.00
2019-01-10T13:54:29.220Z,101736.00
2019-01-10T13:57:18.741Z,101684.00
2019-01-10T14:00:13.456Z,101733.00
2019-01-10T14:03:02.930Z,101693.00
2019-01-10T14:05:33.297Z,101726.00
2019-01-10T14:08:22.834Z,101727.00
2019-01-10T14:11:12.304Z,101692.00
2019-01-10T14:14:01.925Z,101677.00
2019-01-10T14:16:51.367Z,101718.00
2019-01-10T14:19:41.634Z,101679.00
2019-01-10T14:22:31.263Z,101719.00
2019-01-10T14:25:20.901Z,101717.00
2019-01-10T14:28:10.782Z,101669.00
2019-01-10T14:31:00.501Z,101673.00
2019-01-10T14:33:50.021Z,101723.00
2019-01-10T14:36:39.757Z,101726.00
2019-01-10T14:39:29.232Z,101728.00
2019-01-10T14:42:18.749Z,101725.00
2019-01-10T14:48:39.459Z,101679.00
2019-01-10T14:51:20.074Z,101729.00
2019-01-10T14:54:09.508Z,101727.00
2019-01-10T14:56:39.904Z,101725.00
2019-01-10T14:59:29.407Z,101725.00
2019-01-10T15:02:19.114Z,101729.00
2019-01-10T15:05:08.558Z,101734.00
2019-01-10T15:07:58.654Z,101709.00
2019-01-10T15:10:48.129Z,101741.00
2019-01-10T15:13:37.570Z,101696.00
2019-01-10T15:16:27.011Z,101732.00
2019-01-10T15:19:16.565Z,101691.00
2019-01-10T15:22:06.154Z,101738.00
2019-01-10T15:24:55.661Z,101736.00
2019-01-10T15:27:45.603Z,101749.00
2019-01-10T15:30:35.485Z,101742.00
2019-01-10T15:33:25.372Z,101706.00
2019-01-10T15:36:14.819Z,101691.00
2019-01-10T15:39:24.975Z,101729.00
2019-01-10T15:42:14.399Z,101680.00
2019-01-10T15:45:04.884Z,101722.00
2019-01-10T15:47:55.213Z,101723.00
2019-01-10T15:50:44.708Z,101733.00
2019-01-10T15:53:27.022Z,101690.00
2019-01-10T15:56:16.495Z,101686.00
2019-01-10T15:59:05.942Z,101732.00
2019-01-10T16:01:56.042Z,101724.00
2019-01-10T16:04:45.793Z,101730.00
2019-01-10T16:07:35.740Z,101730.00
2019-01-10T16:10:25.197Z,101681.00
2019-01-10T16:13:14.656Z,101679.00
2019-01-10T16:16:04.139Z,101738.00
2019-01-10T16:18:54.082Z,101683.00
2019-01-10T16:21:43.934Z,101727.00
2019-01-10T16:24:33.410Z,101725.00
2019-01-10T16:27:22.869Z,101737.00
2019-01-10T16:30:31.577Z,101737.00
2019-01-10T16:33:21.380Z,101728.00
2019-01-10T16:36:10.889Z,101738.00
2019-01-10T16:39:00.747Z,101729.00
2019-01-10T16:41:50.281Z,101731.00
2019-01-10T16:44:39.712Z,101738.00
2019-01-10T16:47:10.167Z,101732.00
2019-01-10T16:49:40.605Z,101738.00
2019-01-10T16:52:12.113Z,101735.00
2019-01-10T16:55:01.608Z,101715.00
2019-01-10T16:57:31.973Z,101743.00
2019-01-10T17:00:28.665Z,101743.00
2019-01-10T17:02:59.451Z,101740.00
2019-01-10T17:05:49.475Z,101709.00
2019-01-10T17:08:39.011Z,101693.00
2019-01-10T17:11:28.490Z,101732.00
2019-01-10T17:14:18.011Z,101727.00
2019-01-10T17:17:07.705Z,101716.00
2019-01-10T17:19:50.820Z,101729.00
2019-01-10T17:22:40.700Z,101718.00
2019-01-10T17:25:30.695Z,101713.00
2019-01-10T17:28:20.196Z,101686.00
2019-01-10T17:31:09.668Z,101732.00
2019-01-10T17:33:59.339Z,101727.00
2019-01-10T17:36:49.690Z,101704.00
2019-01-10T17:39:20.482Z,101726.00
2019-01-10T17:41:51.015Z,101730.00
2019-01-10T17:44:40.598Z,101727.00
2019-01-10T17:47:30.095Z,101673.00
2019-01-10T17:50:19.701Z,101689.00
2019-01-10T17:53:09.142Z,101725.00
2019-01-10T17:55:39.454Z,101727.00
2019-01-10T17:58:29.033Z,101690.00
2019-01-10T18:01:18.431Z,101681.00
2019-01-10T18:04:07.907Z,101726.00
2019-01-10T18:06:57.314Z,101733.00
2019-01-10T18:09:47.170Z,101739.00
2019-01-10T18:12:36.612Z,101737.00
2019-01-10T18:15:26.099Z,101726.00
2019-01-10T18:18:15.593Z,101731.00
2019-01-10T18:21:05.060Z,101734.00
2019-01-10T18:23:54.536Z,101730.00
2019-01-10T18:26:44.228Z,101672.00
2019-01-10T18:29:14.606Z,101733.00
2019-01-10T18:32:04.203Z,101685.00
2019-01-10T18:34:53.828Z,101730.00
2019-01-10T18:37:43.282Z,101731.00
2019-01-10T18:40:32.720Z,101702.00
2019-01-10T18:43:22.205Z,101723.00
2019-01-10T18:46:11.666Z,101687.00
2019-01-10T18:49:01.206Z,101728.00
2019-01-10T18:51:50.220Z,101717.00
2019-01-10T18:54:39.480Z,101717.00
2019-01-10T18:57:28.862Z,101672.00
2019-01-10T18:59:59.961Z,101720.00
2019-01-10T19:02:49.558Z,101715.00
2019-01-10T19:05:39.269Z,101723.00
2019-01-10T19:08:28.783Z,101718.00
2019-01-10T19:11:18.249Z,101725.00
2019-01-10T19:13:48.569Z,101723.00
2019-01-10T19:16:18.921Z,101726.00
2019-01-10T19:18:50.279Z,101716.00
2019-01-10T19:21:20.954Z,101730.00
2019-01-10T19:23:51.731Z,101721.00
2019-01-10T19:26:41.510Z,101714.00
2019-01-10T19:29:31.555Z,101725.00
2019-01-10T19:32:21.052Z,101679.00
2019-01-10T19:35:10.479Z,101715.00
2019-01-10T19:38:00.685Z,101720.00
2019-01-10T19:40:50.149Z,101719.00
2019-01-10T19:43:20.532Z,101719.00
2019-01-10T19:46:09.958Z,101727.00
2019-01-10T19:48:59.413Z,101680.00
2019-01-10T19:51:41.956Z,101719.00
2019-01-10T19:54:31.423Z,101669.00
2019-01-10T19:57:02.012Z,101720.00
2019-01-10T19:59:32.348Z,101711.00
2019-01-10T20:02:03.424Z,101706.00
2019-01-10T20:04:33.797Z,101715.00
2019-01-10T20:07:23.206Z,101718.00
2019-01-10T20:09:53.571Z,101706.00
2019-01-10T20:12:23.898Z,101715.00
2019-01-10T20:14:54.733Z,101714.00
2019-01-10T20:17:44.682Z,101709.00
2019-01-10T20:20:30.164Z,101713.00
2019-01-10T20:23:32.523Z,101714.00
2019-01-10T20:26:03.316Z,101719.00
2019-01-10T20:28:33.986Z,101722.00
2019-01-10T20:31:23.404Z,101725.00
2019-01-10T20:34:12.830Z,101702.00
2019-01-10T20:37:02.663Z,101716.00
2019-01-10T20:39:52.118Z,101723.00
2019-01-10T20:42:41.579Z,101720.00
2019-01-10T20:45:31.366Z,101720.00
2019-01-10T20:48:22.543Z,101724.00
2019-01-10T20:50:53.665Z,101715.00
2019-01-10T20:53:43.361Z,101672.00
2019-01-10T20:56:32.844Z,101673.00
2019-01-10T20:59:22.334Z,101733.00
2019-01-10T21:02:11.840Z,101685.00
2019-01-10T21:05:01.299Z,101726.00
2019-01-10T21:07:50.858Z,101717.00
2019-01-10T21:10:40.666Z,101713.00
2019-01-10T21:13:30.105Z,101722.00
2019-01-10T21:16:19.606Z,101725.00
2019-01-10T21:19:09.046Z,101726.00
2019-01-10T21:21:58.881Z,101716.00
2019-01-10T21:24:48.359Z,101674.00
2019-01-10T21:27:38.333Z,101654.00
2019-01-10T21:30:27.752Z,101691.00
2019-01-10T21:32:58.438Z,101690.00
2019-01-10T21:35:48.137Z,101649.00
2019-01-10T21:38:37.603Z,101662.00
2019-01-10T21:41:27.051Z,101663.00
2019-01-10T21:44:16.818Z,101707.00
2019-01-10T21:47:06.658Z,101699.00
2019-01-10T21:49:56.483Z,101663.00
2019-01-10T21:52:45.944Z,101699.00
2019-01-10T21:55:35.458Z,101696.00
2019-01-10T21:58:25.297Z,101688.00
2019-01-10T22:00:56.214Z,101701.00
2019-01-10T22:03:46.367Z,101687.00
2019-01-10T22:06:35.924Z,101682.00
2019-01-10T22:09:25.407Z,101683.00
2019-01-10T22:12:14.932Z,101671.00
2019-01-10T22:18:19.947Z,101641.00
2019-01-10T22:20:50.356Z,101677.00
2019-01-10T22:23:20.797Z,101665.00
2019-01-10T22:26:10.370Z,101632.00
2019-01-10T22:28:59.841Z,101676.00
2019-01-10T22:31:49.381Z,101627.00
2019-01-10T22:34:39.164Z,101663.00
2019-01-10T22:37:29.107Z,101669.00
2019-01-10T22:40:21.320Z,101614.00
2019-01-10T22:43:10.794Z,101617.00
2019-01-10T22:46:00.223Z,101667.00
2019-01-10T22:48:49.745Z,101664.00
2019-01-10T22:51:32.007Z,101614.00
2019-01-10T22:54:21.498Z,101657.00
2019-01-10T22:57:11.178Z,101613.00
2019-01-10T23:00:01.287Z,101661.00
2019-01-10T23:03:11.314Z,101654.00
2019-01-10T23:06:01.126Z,101616.00
2019-01-10T23:08:50.718Z,101647.00
2019-01-10T23:11:40.217Z,101650.00
2019-01-10T23:14:29.713Z,101641.00
2019-01-10T23:17:18.637Z,101638.00
2019-01-10T23:20:07.540Z,101642.00
2019-01-10T23:23:02.278Z,101625.00
2019-01-10T23:25:54.342Z,101630.00
2019-01-10T23:28:43.829Z,101636.00
2019-01-10T23:31:33.263Z,101612.00
2019-01-10T23:34:22.729Z,101623.00
2019-01-10T23:37:12.172Z,101628.00
2019-01-10T23:40:01.992Z,101568.00
2019-01-10T23:42:51.722Z,101586.00
2019-01-10T23:45:41.181Z,101617.00
2019-01-10T23:48:30.693Z,101615.00
2019-01-10T23:51:12.387Z,101550.00
2019-01-10T23:54:01.843Z,101600.00
2019-01-10T23:56:50.859Z,101596.00
2019-01-10T23:59:40.324Z,101548.00
